Piloten Info

Wichtige Hinweise

  • Starts auf RWY 09 sind nicht gestattet. Start generell auf RWY 27. Bei Planung Rückenwinde berücksichtigen!
  • Bei Anflügen auf RWY 27 sind Hindernisse vorhanden, aus diesem Grund die versetzte Schwelle27!
  • Der Flugverein Neumarkt führt seine Starts generell auf RWY 27 und Landungen auf RWY09 durch.
  • Es besteht keine Tankmöglichkeit.

Diese Hinweis sind als Ergänzung / Hilfe zur regulären Flugplanung gedacht.

Auszüge aus AIP VFR ohne Gewähr - es gelten die offiziellen Veröffentlichungen.




AIP VFR Auszug - Sichtanflugskarte

AIP VFR Sichtflugkarte


AIP VFR Auszug - Flugplatzkarte

AIP VFR Flugplatzkarte


METAR Informationen der nächstgelegenen Flughäfen


EDDN / Flughafen Nürnberg „Albrecht Dürer“

EDDN 220920Z 24014KT 200V270 9999 SCT026 BKN040 12/05 Q1016 NOSIG

ETIC / Fliegerhorst Grafenwöhr AAF

ETIC 220856Z AUTO 21006KT 9999 FEW013 SCT022 BKN030 BKN038 10/08 A2999 RMK AO2 RAB23E35DZB35E36 SLP159 P0000 60001 T01000081 58004 $

ETIH / Fliegerhorst Hohenfels AAF

ETIH 220918Z AUTO 24005KT 9999 FEW014 SCT023 SCT031 10/09 A3004 RMK AO2 RAB00E18 SLP176 $